Time;durP1;ratioP1;P1;durP2;ratioP2;P2;SDS_P1;SDS_P2;PMS_P1;PMS_P2;Temp;Humidity;BMP_temperature;BMP_pressure;BME280_temperature;BME280_humidity;BME280_pressure;Samples;Min_cycle;Max_cycle;Signal;HPM_P1;HPM_P2
2023/09/22 00:02:23;;;;;;;;;;;;;;;27.79;37.51;99804.72;4977334;28;19944;-86
2023/09/22 00:04:49;;;;;;;;;;;;;;;27.77;37.50;99806.28;4979798;28;20465;-87
2023/09/22 00:07:14;;;;;;;;;;;;;;;27.75;37.65;99801.16;4978617;28;19922;-87
2023/09/22 00:09:40;;;;;;;;;;;;;;;27.73;37.64;99799.97;4980049;28;19980;-87
2023/09/22 00:12:08;;;;;;;;;;;;;;;27.70;37.63;99793.28;4978349;28;19918;-88
2023/09/22 00:14:35;;;;;;;;;;;;;;;27.71;37.63;99807.84;4977988;28;19972;-88
2023/09/22 00:17:00;;;;;;;;;;;;;;;27.65;37.60;99812.94;4977285;28;19950;-88
2023/09/22 00:19:25;;;;;;;;;;;;;;;27.65;37.51;99815.69;4979508;28;19918;-88
2023/09/22 00:21:51;;;;;;;;;;;;;;;27.62;37.50;99822.69;4999193;28;19918;-87
2023/09/22 00:24:18;;;;;;;;;;;;;;;27.61;37.55;99814.81;4978360;28;19917;-88
2023/09/22 00:26:44;;;;;;;;;;;;;;;27.58;37.52;99818.34;4974879;28;19925;-89
2023/09/22 00:29:10;;;;;;;;;;;;;;;27.54;38.00;99820.31;4980016;28;20085;-89
2023/09/22 00:31:38;;;;;;;;;;;;;;;27.49;37.97;99823.41;4980524;28;20366;-89
2023/09/22 00:34:05;;;;;;;;;;;;;;;27.44;38.03;99837.53;4978889;28;19929;-88
2023/09/22 00:36:32;;;;;;;;;;;;;;;27.39;38.17;99833.97;4979433;28;19934;-88
2023/09/22 00:38:58;;;;;;;;;;;;;;;27.34;38.13;99823.34;4991102;28;20285;-88
2023/09/22 00:41:23;;;;;;;;;;;;;;;27.32;38.22;99825.69;4977398;28;20158;-89
2023/09/22 00:43:49;;;;;;;;;;;;;;;27.29;38.36;99825.63;4979341;28;20401;-88
2023/09/22 00:46:21;;;;;;;;;;;;;;;27.24;38.31;99824.03;4977821;28;19944;-88
2023/09/22 00:48:48;;;;;;;;;;;;;;;27.21;38.39;99822.06;4992138;28;20343;-88
2023/09/22 00:51:19;;;;;;;;;;;;;;;27.17;38.57;99829.50;4981068;28;19933;-88
2023/09/22 00:53:46;;;;;;;;;;;;;;;27.15;38.46;99818.09;4983096;28;19925;-88
2023/09/22 00:56:13;;;;;;;;;;;;;;;27.11;38.63;99814.53;4982464;28;21289;-89
2023/09/22 00:58:39;;;;;;;;;;;;;;;27.09;38.52;99822.34;4983860;28;20435;-89
2023/09/22 01:01:04;;;;;;;;;;;;;;;27.07;38.69;99819.19;4980439;28;19926;-88
2023/09/22 01:03:30;;;;;;;;;;;;;;;27.03;38.59;99821.13;4980246;28;20836;-88
2023/09/22 01:05:55;;;;;;;;;;;;;;;26.99;38.54;99823.06;4984907;28;19993;-88
2023/09/22 01:08:21;;;;;;;;;;;;;;;26.95;38.60;99827.72;4982255;28;19933;-88
2023/09/22 01:10:48;;;;;;;;;;;;;;;26.90;38.76;99830.81;4983444;28;19925;-89
2023/09/22 01:13:14;;;;;;;;;;;;;;;26.85;38.84;99822.94;4980004;28;19933;-88
2023/09/22 01:15:42;;;;;;;;;;;;;;;26.83;38.66;99819.78;4979847;28;20379;-88
2023/09/22 01:18:14;;;;;;;;;;;;;;;26.80;38.73;99810.34;4979805;28;19926;-88
2023/09/22 01:20:42;;;;;;;;;;;;;;;26.78;38.71;99801.69;4990348;28;20003;-88
2023/09/22 01:23:08;;;;;;;;;;;;;;;26.76;38.70;99810.31;4996834;28;19922;-88
2023/09/22 01:25:33;;;;;;;;;;;;;;;26.75;38.98;99805.97;4984460;28;19922;-88
2023/09/22 01:27:58;;;;;;;;;;;;;;;26.74;39.09;99809.09;4997074;28;19929;-88
2023/09/22 01:30:26;;;;;;;;;;;;;;;26.71;38.75;99802.41;4981208;28;19925;-88
2023/09/22 01:32:55;;;;;;;;;;;;;;;26.68;39.08;99805.13;4982190;28;20029;-89
2023/09/22 01:35:21;;;;;;;;;;;;;;;26.65;38.93;99812.16;4981364;28;19936;-88
2023/09/22 01:37:58;;;;;;;;;;;;;;;26.60;39.15;99812.50;4980178;28;19918;-89
2023/09/22 01:40:23;;;;;;;;;;;;;;;26.55;39.29;99821.09;4980857;28;19926;-88
2023/09/22 01:42:53;;;;;;;;;;;;;;;26.46;39.33;99813.16;4983214;28;19921;-89
2023/09/22 01:45:19;;;;;;;;;;;;;;;26.40;39.41;99822.91;4996966;28;20438;-88
2023/09/22 01:47:48;;;;;;;;;;;;;;;26.36;39.52;99813.03;4981457;28;19985;-88
2023/09/22 01:50:13;;;;;;;;;;;;;;;26.31;39.67;99807.88;4996239;28;20151;-88
2023/09/22 01:52:38;;;;;;;;;;;;;;;26.29;39.70;99801.97;4981437;28;19917;-88
2023/09/22 01:55:05;;;;;;;;;;;;;;;26.22;39.84;99808.19;4979625;28;20112;-89
2023/09/22 01:57:35;;;;;;;;;;;;;;;26.16;40.20;99815.16;4978774;28;19932;-89
2023/09/22 02:00:10;;;;;;;;;;;;;;;26.07;40.02;99807.22;4982277;28;20453;-89
2023/09/22 02:02:35;;;;;;;;;;;;;;;25.99;40.28;99802.81;4981836;28;19928;-89
2023/09/22 02:05:02;;;;;;;;;;;;;;;25.96;41.78;99800.03;4981503;28;19930;-89
2023/09/22 02:07:28;;;;;;;;;;;;;;;25.95;40.49;99803.94;4980614;28;19926;-88
2023/09/22 02:09:55;;;;;;;;;;;;;;;25.95;40.93;99801.97;4978863;28;19993;-89
2023/09/22 02:12:23;;;;;;;;;;;;;;;25.99;40.71;99802.03;4980447;28;19945;-89
2023/09/22 02:14:49;;;;;;;;;;;;;;;26.02;40.36;99798.53;4979060;28;20065;-89
2023/09/22 02:17:15;;;;;;;;;;;;;;;25.96;40.65;99800.81;4996873;28;19922;-88
2023/09/22 02:19:41;;;;;;;;;;;;;;;25.94;41.25;99789.44;4978073;28;19917;-88
2023/09/22 02:22:07;;;;;;;;;;;;;;;25.95;40.86;99799.25;4981525;28;19918;-88
2023/09/22 02:24:32;;;;;;;;;;;;;;;25.96;40.95;99789.06;4981226;28;19930;-88
2023/09/22 02:26:58;;;;;;;;;;;;;;;25.97;40.69;99793.38;4982294;28;20469;-90
2023/09/22 02:29:24;;;;;;;;;;;;;;;25.99;40.76;99802.81;4978911;28;19925;-89
2023/09/22 02:31:50;;;;;;;;;;;;;;;25.98;41.01;99800.44;4981880;28;19922;-89
2023/09/22 02:34:20;;;;;;;;;;;;;;;25.99;41.02;99805.56;4983385;28;20044;-89
2023/09/22 02:36:46;;;;;;;;;;;;;;;25.96;41.01;99795.34;4978554;28;20010;-88
2023/09/22 02:39:12;;;;;;;;;;;;;;;25.96;41.00;99800.03;4979825;28;19940;-89
2023/09/22 02:41:38;;;;;;;;;;;;;;;25.97;40.90;99791.41;4981391;28;19930;-88
2023/09/22 02:44:06;;;;;;;;;;;;;;;26.00;41.02;99796.16;4977996;28;19933;-89
2023/09/22 02:46:36;;;;;;;;;;;;;;;26.01;41.30;99797.72;4982232;28;19922;-89
2023/09/22 02:49:01;;;;;;;;;;;;;;;26.01;41.02;99796.94;4976594;28;19921;-88
2023/09/22 02:51:28;;;;;;;;;;;;;;;26.02;41.00;99799.31;4993247;28;19948;-88
2023/09/22 02:53:54;;;;;;;;;;;;;;;26.03;41.08;99827.56;4980959;28;19942;-88
2023/09/22 02:56:21;;;;;;;;;;;;;;;25.96;41.31;99816.50;4980404;28;19921;-89
2023/09/22 02:58:48;;;;;;;;;;;;;;;25.94;41.16;99825.09;4981567;28;20496;-88
2023/09/22 03:01:14;;;;;;;;;;;;;;;25.95;41.69;99832.19;4979429;28;20096;-88
2023/09/22 03:03:42;;;;;;;;;;;;;;;25.97;41.58;99837.28;4980042;28;19928;-89
2023/09/22 03:06:12;;;;;;;;;;;;;;;25.93;41.37;99842.75;4995431;28;19921;-89
2023/09/22 03:08:42;;;;;;;;;;;;;;;25.89;41.38;99837.22;4981642;28;19925;-89
2023/09/22 03:11:07;;;;;;;;;;;;;;;25.84;41.67;99834.78;4979697;28;19918;-88
2023/09/22 03:13:34;;;;;;;;;;;;;;;25.80;41.79;99824.94;4978526;28;20441;-88
2023/09/22 03:16:01;;;;;;;;;;;;;;;25.78;41.82;99836.28;4977165;28;19922;-88
2023/09/22 03:18:28;;;;;;;;;;;;;;;25.75;41.80;99844.47;4980166;28;19933;-88
2023/09/22 03:20:54;;;;;;;;;;;;;;;25.75;41.89;99848.00;4978792;28;19930;-88
2023/09/22 03:23:21;;;;;;;;;;;;;;;25.76;42.00;99854.28;4981116;28;19926;-89
2023/09/22 03:25:47;;;;;;;;;;;;;;;25.76;41.99;99857.03;4978802;28;20241;-88
2023/09/22 03:28:16;;;;;;;;;;;;;;;25.78;41.88;99854.69;4979211;28;19980;-90
2023/09/22 03:30:44;;;;;;;;;;;;;;;25.80;41.99;99858.63;4978811;28;19925;-89
2023/09/22 03:33:09;;;;;;;;;;;;;;;25.81;41.72;99864.91;4995956;28;19934;-89
2023/09/22 03:35:36;;;;;;;;;;;;;;;25.79;41.80;99861.75;4981043;28;19926;-88
2023/09/22 03:38:03;;;;;;;;;;;;;;;25.73;42.12;99852.28;4979989;28;19928;-89
2023/09/22 03:40:33;;;;;;;;;;;;;;;25.71;42.02;99860.09;5000338;28;19922;-89
2023/09/22 03:42:59;;;;;;;;;;;;;;;25.65;42.16;99850.56;4978692;28;19918;-88
2023/09/22 03:45:27;;;;;;;;;;;;;;;25.61;42.37;99845.81;4995093;28;20169;-88
2023/09/22 03:47:52;;;;;;;;;;;;;;;25.64;42.04;99848.97;4992734;28;19929;-89
2023/09/22 03:50:17;;;;;;;;;;;;;;;25.61;42.32;99850.50;4991647;28;20048;-88
2023/09/22 03:52:45;;;;;;;;;;;;;;;25.63;42.41;99863.84;4995840;28;20039;-90
2023/09/22 03:55:12;;;;;;;;;;;;;;;25.64;42.53;99860.75;4982550;28;20021;-89
2023/09/22 03:57:37;;;;;;;;;;;;;;;25.67;42.42;99870.19;4982107;28;19929;-89
2023/09/22 04:00:07;;;;;;;;;;;;;;;25.66;42.42;99871.34;4983454;28;19921;-89
2023/09/22 04:02:32;;;;;;;;;;;;;;;25.66;42.43;99879.56;4979857;28;20327;-88
2023/09/22 04:04:59;;;;;;;;;;;;;;;25.63;42.36;99891.28;4998006;28;20028;-89
2023/09/22 04:07:26;;;;;;;;;;;;;;;25.64;42.44;99892.88;4981054;28;20012;-89
2023/09/22 04:09:51;;;;;;;;;;;;;;;25.60;42.18;99903.78;4979674;28;20004;-89
2023/09/22 04:12:18;;;;;;;;;;;;;;;25.54;42.63;99906.06;4977912;28;20489;-90
2023/09/22 04:14:44;;;;;;;;;;;;;;;25.53;42.52;99912.72;4993433;28;19953;-88
2023/09/22 04:17:09;;;;;;;;;;;;;;;25.51;42.77;99920.53;4977095;28;19926;-89
2023/09/22 04:19:36;;;;;;;;;;;;;;;25.53;42.72;99920.94;4977759;28;19922;-89
2023/09/22 04:22:03;;;;;;;;;;;;;;;25.52;42.75;99919.38;4980349;28;20378;-89
2023/09/22 04:24:32;;;;;;;;;;;;;;;25.49;42.68;99917.34;4981903;28;20378;-89
2023/09/22 04:27:06;;;;;;;;;;;;;;;25.50;42.83;99924.44;4980865;28;19922;-89
2023/09/22 04:29:35;;;;;;;;;;;;;;;25.51;42.76;99928.75;5000861;28;19926;-90
2023/09/22 04:32:13;;;;;;;;;;;;;;;25.52;42.76;99922.09;4983078;28;19922;-88
2023/09/22 04:34:39;;;;;;;;;;;;;;;25.53;42.87;99926.44;4984382;28;20056;-88
2023/09/22 04:37:04;;;;;;;;;;;;;;;25.51;42.88;99926.00;4983644;28;19930;-89
2023/09/22 04:39:31;;;;;;;;;;;;;;;25.54;42.84;99938.97;4982122;28;19937;-89
2023/09/22 04:41:57;;;;;;;;;;;;;;;25.55;42.62;99940.56;4983451;28;19922;-89
2023/09/22 04:44:23;;;;;;;;;;;;;;;25.50;42.70;99957.34;4980734;28;19932;-88
2023/09/22 04:46:49;;;;;;;;;;;;;;;25.44;42.81;99961.53;4985138;28;20290;-89
2023/09/22 04:49:15;;;;;;;;;;;;;;;25.43;42.74;99959.16;4985495;28;19921;-89
2023/09/22 04:51:42;;;;;;;;;;;;;;;25.42;43.08;99969.34;4982814;28;20408;-89
2023/09/22 04:54:07;;;;;;;;;;;;;;;25.43;43.00;99975.59;4982475;28;19926;-89
2023/09/22 04:56:33;;;;;;;;;;;;;;;25.42;42.99;99974.03;4984348;28;20306;-89
2023/09/22 04:59:01;;;;;;;;;;;;;;;25.38;43.31;99976.72;4981508;28;19918;-89
2023/09/22 05:01:30;;;;;;;;;;;;;;;25.38;43.23;99995.13;4983947;28;20001;-88
2023/09/22 05:03:57;;;;;;;;;;;;;;;25.39;43.17;100005.72;4985269;28;20417;-88
2023/09/22 05:06:23;;;;;;;;;;;;;;;25.34;43.29;100006.03;4982690;28;19975;-89
2023/09/22 05:08:48;;;;;;;;;;;;;;;25.33;43.43;100001.72;4982999;28;19918;-89
2023/09/22 05:11:14;;;;;;;;;;;;;;;25.32;43.34;100004.81;4997243;28;19980;-88
2023/09/22 05:13:40;;;;;;;;;;;;;;;25.32;43.68;100002.06;4982462;28;19925;-89
2023/09/22 05:16:08;;;;;;;;;;;;;;;25.39;43.45;100000.25;4981791;28;19925;-88
2023/09/22 05:18:36;;;;;;;;;;;;;;;25.48;43.50;100005.47;4983508;28;20401;-88
2023/09/22 05:21:03;;;;;;;;;;;;;;;25.51;43.48;100005.53;4980171;28;19925;-88
2023/09/22 05:23:32;;;;;;;;;;;;;;;25.50;43.39;100000.44;4999971;28;19922;-88
2023/09/22 05:25:57;;;;;;;;;;;;;;;25.48;43.43;99992.53;4997225;28;19976;-89
2023/09/22 05:28:23;;;;;;;;;;;;;;;25.47;43.67;99980.00;4982605;28;20314;-88
2023/09/22 05:30:50;;;;;;;;;;;;;;;25.52;43.53;99967.94;4982297;28;19921;-89
2023/09/22 05:33:18;;;;;;;;;;;;;;;25.54;43.56;99966.41;4981919;28;20398;-88
2023/09/22 05:35:45;;;;;;;;;;;;;;;25.61;43.60;99966.50;4982316;28;19979;-88
2023/09/22 05:38:11;;;;;;;;;;;;;;;25.66;43.31;99957.16;4983522;28;19921;-88
2023/09/22 05:40:38;;;;;;;;;;;;;;;25.72;43.39;99960.44;4982518;28;20386;-89
2023/09/22 05:43:05;;;;;;;;;;;;;;;25.77;43.41;99968.34;4998307;28;19926;-89
2023/09/22 05:45:31;;;;;;;;;;;;;;;25.78;43.44;99965.22;4980027;28;20016;-88
2023/09/22 05:47:56;;;;;;;;;;;;;;;25.77;43.33;99982.06;5000962;28;20016;-89
2023/09/22 05:50:23;;;;;;;;;;;;;;;25.79;43.63;99983.28;4982142;28;20008;-88
2023/09/22 05:52:52;;;;;;;;;;;;;;;25.82;43.74;99984.47;4982347;28;19940;-89
2023/09/22 05:55:18;;;;;;;;;;;;;;;25.83;43.66;99972.34;4996876;28;19925;-88
2023/09/22 05:57:43;;;;;;;;;;;;;;;25.86;43.70;99982.63;4997721;28;19930;-88
2023/09/22 06:00:15;;;;;;;;;;;;;;;25.89;43.77;99998.34;4981936;28;19969;-88
2023/09/22 06:02:43;;;;;;;;;;;;;;;25.91;43.60;100006.97;4982837;28;19921;-90
2023/09/22 06:05:09;;;;;;;;;;;;;;;25.88;43.48;100007.72;4980516;28;19922;-88
2023/09/22 06:07:35;;;;;;;;;;;;;;;25.80;44.09;100008.75;4983429;28;19957;-89
2023/09/22 06:10:05;;;;;;;;;;;;;;;25.81;43.92;100013.09;4980239;28;20133;-89
2023/09/22 06:12:31;;;;;;;;;;;;;;;25.82;44.13;100031.13;4979954;28;19925;-89
2023/09/22 06:15:00;;;;;;;;;;;;;;;25.82;43.82;100037.41;4981826;28;19933;-89
2023/09/22 06:17:26;;;;;;;;;;;;;;;25.77;44.19;100031.44;4987642;28;19956;-89
2023/09/22 06:19:52;;;;;;;;;;;;;;;25.77;44.00;100017.72;5001891;28;19906;-91
2023/09/22 06:22:19;;;;;;;;;;;;;;;25.79;44.10;100031.88;4981754;28;19960;-89
2023/09/22 06:24:45;;;;;;;;;;;;;;;25.79;44.00;100042.84;4982507;28;19918;-89
2023/09/22 06:27:12;;;;;;;;;;;;;;;25.75;44.18;100040.06;4995428;28;19925;-90
2023/09/22 06:29:39;;;;;;;;;;;;;;;25.75;44.13;100044.75;4992217;28;20018;-89
2023/09/22 06:32:05;;;;;;;;;;;;;;;25.75;44.45;100040.06;4975657;28;20230;-89
2023/09/22 06:34:32;;;;;;;;;;;;;;;25.76;44.39;100041.63;4982153;28;19922;-89
2023/09/22 06:36:59;;;;;;;;;;;;;;;25.79;44.68;100048.34;4981385;28;19925;-89
2023/09/22 06:39:24;;;;;;;;;;;;;;;25.81;44.68;100062.47;4979921;28;20279;-90
2023/09/22 06:41:49;;;;;;;;;;;;;;;25.81;44.48;100062.47;4997625;28;20370;-90
2023/09/22 06:44:17;;;;;;;;;;;;;;;25.82;44.71;100091.50;4976879;28;19922;-89
2023/09/22 06:46:44;;;;;;;;;;;;;;;25.82;44.54;100113.47;4978786;28;19926;-89
2023/09/22 06:49:10;;;;;;;;;;;;;;;25.73;44.75;100132.91;5000935;28;19918;-88
2023/09/22 06:51:38;;;;;;;;;;;;;;;25.68;44.68;100148.91;4997305;28;19980;-89
2023/09/22 06:54:04;;;;;;;;;;;;;;;25.58;45.03;100159.25;4980834;28;20000;-88
2023/09/22 06:56:29;;;;;;;;;;;;;;;25.50;45.47;100167.72;4996021;28;19934;-88
2023/09/22 06:58:56;;;;;;;;;;;;;;;25.46;45.26;100147.66;4979777;28;19933;-88
2023/09/22 07:01:21;;;;;;;;;;;;;;;25.41;45.53;100165.19;4978680;28;19969;-88
2023/09/22 07:03:48;;;;;;;;;;;;;;;25.39;45.48;100162.03;4981931;28;19953;-87
2023/09/22 07:06:16;;;;;;;;;;;;;;;25.29;45.80;100165.34;4981876;28;20000;-88
2023/09/22 07:08:44;;;;;;;;;;;;;;;25.23;46.16;100177.75;4979081;28;20012;-88
2023/09/22 07:11:10;;;;;;;;;;;;;;;25.21;45.99;100180.84;4979147;28;19957;-87
2023/09/22 07:13:41;;;;;;;;;;;;;;;25.22;46.24;100178.91;4982431;28;20027;-87
2023/09/22 07:16:06;;;;;;;;;;;;;;;25.19;46.09;100183.16;4979121;28;20173;-88
2023/09/22 07:18:37;;;;;;;;;;;;;;;25.19;46.02;100190.59;4981329;28;20008;-87
2023/09/22 07:21:03;;;;;;;;;;;;;;;25.14;46.39;100202.66;4981306;28;19925;-87
2023/09/22 07:23:30;;;;;;;;;;;;;;;25.17;46.30;100214.84;4982843;28;20648;-88
2023/09/22 07:26:00;;;;;;;;;;;;;;;25.16;45.90;100229.69;4980406;28;20040;-88
2023/09/22 07:28:27;;;;;;;;;;;;;;;25.09;46.48;100218.56;4983620;28;20164;-89
2023/09/22 07:30:54;;;;;;;;;;;;;;;25.10;46.53;100199.00;4979248;28;20268;-89
2023/09/22 07:33:23;;;;;;;;;;;;;;;25.11;46.46;100191.59;4979589;28;19946;-90
2023/09/22 07:35:51;;;;;;;;;;;;;;;25.14;46.47;100188.94;4981547;28;19925;-89
2023/09/22 07:38:18;;;;;;;;;;;;;;;25.18;46.21;100197.25;4980663;28;20441;-89
2023/09/22 07:40:44;;;;;;;;;;;;;;;25.19;46.16;100201.56;4982833;28;19933;-89
2023/09/22 07:43:09;;;;;;;;;;;;;;;25.16;46.50;100197.59;4976109;28;19922;-89
2023/09/22 07:45:37;;;;;;;;;;;;;;;25.14;46.51;100204.59;4980331;28;19930;-89
2023/09/22 07:48:02;;;;;;;;;;;;;;;25.08;46.82;100212.28;4996962;28;19922;-88
2023/09/22 07:50:29;;;;;;;;;;;;;;;25.11;46.95;100224.47;4981592;28;19929;-87
2023/09/22 07:52:56;;;;;;;;;;;;;;;25.15;46.63;100225.38;4980082;28;20417;-87
2023/09/22 07:55:21;;;;;;;;;;;;;;;25.16;46.88;100219.53;4981082;28;19930;-87
2023/09/22 07:57:49;;;;;;;;;;;;;;;25.23;46.85;100235.31;4979393;28;19929;-88
2023/09/22 08:00:18;;;;;;;;;;;;;;;25.32;46.73;100260.59;4986372;28;19925;-89
2023/09/22 08:02:45;;;;;;;;;;;;;;;25.26;46.99;100262.03;4990634;28;20021;-86
2023/09/22 08:05:15;;;;;;;;;;;;;;;25.24;47.24;100267.06;4985885;28;20011;-87
2023/09/22 08:07:42;;;;;;;;;;;;;;;25.23;47.17;100255.31;4986517;28;19922;-87
2023/09/22 08:10:10;;;;;;;;;;;;;;;25.24;47.34;100253.38;4983038;28;19929;-87
2023/09/22 08:12:42;;;;;;;;;;;;;;;25.29;47.33;100255.81;5002447;28;19922;-87
2023/09/22 08:15:08;;;;;;;;;;;;;;;25.35;47.12;100265.38;4989775;28;19926;-86
2023/09/22 08:17:34;;;;;;;;;;;;;;;25.38;46.84;100258.38;4987282;28;19932;-87
2023/09/22 08:19:59;;;;;;;;;;;;;;;25.32;47.35;100259.81;4984248;28;20403;-88
2023/09/22 08:22:26;;;;;;;;;;;;;;;25.36;46.94;100272.44;5000160;28;19968;-88
2023/09/22 08:24:51;;;;;;;;;;;;;;;25.32;47.32;100270.78;4998431;28;19929;-88
2023/09/22 08:27:17;;;;;;;;;;;;;;;25.28;47.24;100276.16;4982404;28;19922;-87
2023/09/22 08:29:50;;;;;;;;;;;;;;;25.30;47.36;100280.13;4985631;28;19929;-88
2023/09/22 08:32:16;;;;;;;;;;;;;;;25.33;47.15;100288.81;4984342;28;20076;-88
2023/09/22 08:34:48;;;;;;;;;;;;;;;25.32;47.17;100295.47;4985519;28;20412;-87
2023/09/22 08:37:14;;;;;;;;;;;;;;;25.34;46.93;100282.97;4986980;28;19925;-87
2023/09/22 08:39:39;;;;;;;;;;;;;;;25.30;47.29;100282.09;4981318;28;20025;-87
2023/09/22 08:42:05;;;;;;;;;;;;;;;25.31;47.50;100278.19;4984300;28;19922;-88
2023/09/22 08:44:32;;;;;;;;;;;;;;;25.40;47.23;100272.50;4982227;28;20004;-88
2023/09/22 08:46:57;;;;;;;;;;;;;;;25.43;47.25;100264.34;4992534;28;20437;-88
2023/09/22 08:49:26;;;;;;;;;;;;;;;25.52;47.15;100275.94;4990886;28;19921;-87
2023/09/22 08:51:51;;;;;;;;;;;;;;;25.56;47.02;100271.28;4983929;28;19951;-88
2023/09/22 08:54:18;;;;;;;;;;;;;;;25.57;47.18;100283.06;4986924;28;20375;-87
2023/09/22 08:56:43;;;;;;;;;;;;;;;25.61;47.24;100301.19;4984338;28;20227;-88
2023/09/22 08:59:09;;;;;;;;;;;;;;;25.66;47.29;100308.31;4984096;28;19921;-87
2023/09/22 09:01:36;;;;;;;;;;;;;;;25.66;47.26;100313.00;4983227;28;19956;-87
2023/09/22 09:04:20;;;;;;;;;;;;;;;25.69;47.19;100315.88;4983724;28;19929;-88
2023/09/22 09:06:46;;;;;;;;;;;;;;;25.69;47.14;100318.63;4983405;28;20409;-88
2023/09/22 09:09:14;;;;;;;;;;;;;;;25.71;46.95;100332.00;4979097;28;19933;-87
2023/09/22 09:11:56;;;;;;;;;;;;;;;25.69;46.99;100329.59;4977586;28;20005;-87
2023/09/22 09:14:23;;;;;;;;;;;;;;;25.67;46.89;100331.06;4982764;28;19925;-86
2023/09/22 09:16:49;;;;;;;;;;;;;;;25.70;46.78;100320.22;4982065;28;19921;-85
2023/09/22 09:19:15;;;;;;;;;;;;;;;25.72;46.84;100330.84;4980874;28;19975;-87
2023/09/22 09:22:00;;;;;;;;;;;;;;;25.80;46.78;100332.56;4982288;28;19976;-87
2023/09/22 09:24:25;;;;;;;;;;;;;;;25.92;46.55;100340.66;4978142;28;20581;-86
2023/09/22 09:26:51;;;;;;;;;;;;;;;25.99;46.15;100343.53;4982939;28;20004;-87
2023/09/22 09:29:25;;;;;;;;;;;;;;;25.98;45.83;100346.66;4983344;28;20391;-88
2023/09/22 09:31:51;;;;;;;;;;;;;;;25.93;46.06;100355.97;4995634;28;19922;-87
2023/09/22 09:34:16;;;;;;;;;;;;;;;25.96;45.92;100355.25;4998833;28;19926;-87
2023/09/22 09:36:42;;;;;;;;;;;;;;;25.97;45.62;100354.09;4983810;28;20357;-87
2023/09/22 09:39:08;;;;;;;;;;;;;;;25.89;45.64;100355.09;4984273;28;20536;-88
2023/09/22 09:41:34;;;;;;;;;;;;;;;25.81;45.90;100376.09;4984864;28;19918;-88
2023/09/22 09:44:02;;;;;;;;;;;;;;;25.80;45.64;100368.22;4982647;28;19929;-87
2023/09/22 09:46:28;;;;;;;;;;;;;;;25.75;45.57;100363.81;4980172;28;19922;-88
2023/09/22 09:48:55;;;;;;;;;;;;;;;25.74;45.66;100350.47;4983499;28;20497;-88
2023/09/22 09:51:23;;;;;;;;;;;;;;;25.75;45.52;100354.81;4983654;28;20012;-87
2023/09/22 09:53:51;;;;;;;;;;;;;;;25.79;45.30;100361.16;4981692;28;19965;-88
2023/09/22 09:56:17;;;;;;;;;;;;;;;25.82;45.13;100369.44;4983221;28;19929;-87
2023/09/22 09:58:42;;;;;;;;;;;;;;;25.85;45.09;100366.00;4982672;28;19944;-87
2023/09/22 10:01:08;;;;;;;;;;;;;;;25.90;45.06;100371.22;4981197;28;19933;-87
2023/09/22 10:03:36;;;;;;;;;;;;;;;25.93;44.85;100377.13;4983717;28;20306;-87
2023/09/22 10:06:03;;;;;;;;;;;;;;;25.90;44.80;100378.66;4982202;28;19928;-87
2023/09/22 10:08:28;;;;;;;;;;;;;;;25.90;44.66;100378.66;4983135;28;19921;-87
2023/09/22 10:10:56;;;;;;;;;;;;;;;25.86;44.44;100373.09;4983052;28;19925;-87
2023/09/22 10:13:21;;;;;;;;;;;;;;;25.87;44.46;100373.88;4981827;28;20456;-88
2023/09/22 10:15:52;;;;;;;;;;;;;;;25.82;44.55;100385.13;4981764;28;20267;-88
2023/09/22 10:18:18;;;;;;;;;;;;;;;25.83;44.48;100384.75;4982606;28;19922;-87
2023/09/22 10:20:47;;;;;;;;;;;;;;;25.84;44.40;100380.88;4981823;28;19922;-87
2023/09/22 10:23:30;;;;;;;;;;;;;;;25.87;44.20;100382.13;4982323;28;19926;-87
2023/09/22 10:26:04;;;;;;;;;;;;;;;25.89;43.93;100390.78;4978370;28;20177;-86
2023/09/22 10:28:32;;;;;;;;;;;;;;;25.90;44.02;100390.41;4980395;28;19922;-86
2023/09/22 10:30:57;;;;;;;;;;;;;;;25.89;43.85;100393.53;4982145;28;19926;-90
2023/09/22 10:33:22;;;;;;;;;;;;;;;25.86;43.93;100394.25;4983166;28;19921;-87
2023/09/22 10:35:49;;;;;;;;;;;;;;;25.86;43.79;100392.31;4999949;28;19921;-87
2023/09/22 10:38:19;;;;;;;;;;;;;;;25.89;43.92;100410.00;4984569;28;20197;-86
2023/09/22 10:41:01;;;;;;;;;;;;;;;25.94;43.72;100406.97;4987130;28;19976;-88
2023/09/22 10:43:26;;;;;;;;;;;;;;;25.87;43.79;100404.06;4984307;28;19926;-85
2023/09/22 10:45:52;;;;;;;;;;;;;;;25.85;43.73;100411.84;4985206;28;20482;-86
2023/09/22 10:48:19;;;;;;;;;;;;;;;25.82;43.85;100407.88;4980485;28;20012;-87
2023/09/22 10:50:51;;;;;;;;;;;;;;;25.82;43.79;100405.13;4983004;28;20474;-86
2023/09/22 10:53:16;;;;;;;;;;;;;;;25.86;43.81;100399.75;4985879;28;19918;-87
2023/09/22 10:55:44;;;;;;;;;;;;;;;25.93;43.50;100402.63;4987540;28;20043;-87
2023/09/22 10:58:18;;;;;;;;;;;;;;;25.97;43.55;100398.00;4989683;28;19921;-88
2023/09/22 11:01:00;;;;;;;;;;;;;;;25.99;43.37;100395.69;4986458;28;19922;-87
2023/09/22 11:03:26;;;;;;;;;;;;;;;25.98;43.26;100396.06;4988287;28;19925;-86
2023/09/22 11:05:58;;;;;;;;;;;;;;;26.01;43.11;100400.81;4986477;28;19922;-87
2023/09/22 11:08:23;;;;;;;;;;;;;;;25.98;43.20;100396.84;4984850;28;19924;-87
2023/09/22 11:10:51;;;;;;;;;;;;;;;26.00;43.28;100400.03;4985131;28;19918;-88
2023/09/22 11:13:17;;;;;;;;;;;;;;;26.06;42.99;100395.84;4993327;28;20024;-86
2023/09/22 11:15:49;;;;;;;;;;;;;;;26.05;43.22;100397.00;4995329;28;19949;-89
2023/09/22 11:18:22;;;;;;;;;;;;;;;26.15;43.07;100387.38;4994466;28;19925;-89
2023/09/22 11:20:48;;;;;;;;;;;;;;;26.15;42.90;100396.41;4993391;28;20404;-88
2023/09/22 11:23:14;;;;;;;;;;;;;;;26.19;43.00;100391.00;4983012;28;20021;-87
2023/09/22 11:25:39;;;;;;;;;;;;;;;26.26;42.77;100395.84;5002429;28;19936;-87
2023/09/22 11:28:06;;;;;;;;;;;;;;;26.25;42.68;100399.75;4984775;28;19929;-87
2023/09/22 11:30:33;;;;;;;;;;;;;;;26.24;42.52;100393.47;4985491;28;19926;-88
2023/09/22 11:32:58;;;;;;;;;;;;;;;26.25;42.78;100389.56;4988350;28;19921;-87
2023/09/22 11:35:38;;;;;;;;;;;;;;;26.30;42.71;100396.72;4985862;28;19995;-88
2023/09/22 11:38:24;;;;;;;;;;;;;;;26.32;42.47;100402.63;4985845;28;19918;-87
2023/09/22 11:41:15;;;;;;;;;;;;;;;26.27;42.69;100406.47;4981455;28;19918;-88
2023/09/22 11:43:41;;;;;;;;;;;;;;;26.29;42.36;100408.84;4984750;28;20008;-87
2023/09/22 11:46:08;;;;;;;;;;;;;;;26.24;42.30;100412.69;4984747;28;19918;-87
2023/09/22 11:48:53;;;;;;;;;;;;;;;26.16;42.45;100419.97;4989460;28;19918;-88
2023/09/22 11:51:19;;;;;;;;;;;;;;;26.16;42.46;100424.66;4978602;28;20514;-87
2023/09/22 11:53:45;;;;;;;;;;;;;;;26.10;42.53;100426.91;4987324;28;19921;-87
2023/09/22 11:56:10;;;;;;;;;;;;;;;26.10;42.59;100420.63;4984313;28;20360;-88
2023/09/22 11:58:38;;;;;;;;;;;;;;;26.09;42.42;100422.59;4981721;28;19922;-88
2023/09/22 12:01:04;;;;;;;;;;;;;;;26.07;42.53;100426.84;4983985;28;19933;-87
2023/09/22 12:03:29;;;;;;;;;;;;;;;26.05;42.48;100431.91;4989944;28;19925;-88
2023/09/22 12:05:54;;;;;;;;;;;;;;;25.99;42.41;100430.56;4988837;28;19924;-87
2023/09/22 12:08:20;;;;;;;;;;;;;;;25.92;42.58;100428.50;4989487;28;19967;-87
2023/09/22 12:10:45;;;;;;;;;;;;;;;25.87;42.65;100428.78;4982556;28;20094;-88
2023/09/22 12:13:11;;;;;;;;;;;;;;;25.85;42.69;100420.91;4992121;28;19924;-88
2023/09/22 12:15:37;;;;;;;;;;;;;;;25.84;42.79;100418.50;4996084;28;19929;-88
2023/09/22 12:18:03;;;;;;;;;;;;;;;25.84;42.84;100418.50;4979393;28;19929;-87
2023/09/22 12:20:32;;;;;;;;;;;;;;;25.86;42.85;100419.75;4991684;28;19922;-88
2023/09/22 12:22:59;;;;;;;;;;;;;;;25.87;42.72;100426.03;4988417;28;19922;-89
2023/09/22 12:25:26;;;;;;;;;;;;;;;25.79;43.01;100432.50;4989750;28;19956;-89
2023/09/22 12:27:52;;;;;;;;;;;;;;;25.75;43.25;100437.91;4986511;28;20296;-88
2023/09/22 12:30:17;;;;;;;;;;;;;;;25.73;43.32;100428.47;5000375;28;19929;-90
2023/09/22 12:32:44;;;;;;;;;;;;;;;25.70;43.41;100429.97;5007772;28;20016;-89
2023/09/22 12:35:10;;;;;;;;;;;;;;;25.74;43.50;100436.31;4993664;28;19922;-90
2023/09/22 12:37:35;;;;;;;;;;;;;;;25.74;43.64;100439.06;4989739;28;20003;-89
2023/09/22 12:40:04;;;;;;;;;;;;;;;25.73;43.83;100439.44;5009480;28;19999;-89
2023/09/22 12:42:31;;;;;;;;;;;;;;;25.74;43.80;100441.03;4988338;28;20552;-89